Time;durP1;ratioP1;P1;durP2;ratioP2;P2;SDS_P1;SDS_P2;PMS_P1;PMS_P2;Temp;Humidity;BMP_temperature;BMP_pressure;BME280_temperature;BME280_humidity;BME280_pressure;Samples;Min_cycle;Max_cycle;Signal;HPM_P1;HPM_P2
2022/12/25 00:02:10;;;;;;;25.90;16.58;;;;;;;;;;5091249;28;20377;-76
2022/12/25 00:04:56;;;;;;;23.23;15.57;;;;;;;;;;5077787;28;20012;-77
2022/12/25 00:07:42;;;;;;;23.05;15.25;;;;;;;;;;5078187;28;20028;-77
2022/12/25 00:10:33;;;;;;;23.30;16.00;;;;;;;;;;5092677;28;20027;-77
2022/12/25 00:13:21;;;;;;;24.90;15.73;;;;;;;;;;5078649;28;20043;-77
2022/12/25 00:16:14;;;;;;;26.83;15.93;;;;;;;;;;5078454;28;20024;-76
2022/12/25 00:19:02;;;;;;;27.40;16.77;;;;;;;;;;5092370;28;20024;-76
2022/12/25 00:21:51;;;;;;;23.38;15.63;;;;;;;;;;5077372;28;20461;-77
2022/12/25 00:24:37;;;;;;;25.20;15.93;;;;;;;;;;5091729;28;20020;-75
2022/12/25 00:27:22;;;;;;;25.92;16.42;;;;;;;;;;5092652;28;20446;-76
2022/12/25 00:30:08;;;;;;;23.63;15.90;;;;;;;;;;5077407;28;20052;-76
2022/12/25 00:32:54;;;;;;;28.08;15.70;;;;;;;;;;5077622;28;20027;-75
2022/12/25 00:35:39;;;;;;;26.73;16.83;;;;;;;;;;5092602;28;20188;-77
2022/12/25 00:38:25;;;;;;;25.17;15.73;;;;;;;;;;5092420;28;20111;-77
2022/12/25 00:41:15;;;;;;;24.70;16.83;;;;;;;;;;5095657;28;20458;-76
2022/12/25 00:44:01;;;;;;;28.95;17.20;;;;;;;;;;5096034;28;20036;-76
2022/12/25 00:46:47;;;;;;;26.33;16.42;;;;;;;;;;5095455;28;20044;-75
2022/12/25 00:49:32;;;;;;;26.35;16.27;;;;;;;;;;5095817;28;20017;-76
2022/12/25 00:52:18;;;;;;;26.20;15.65;;;;;;;;;;5081366;28;20015;-76
2022/12/25 00:55:03;;;;;;;24.55;16.35;;;;;;;;;;5095484;28;20031;-77
2022/12/25 00:57:49;;;;;;;26.63;15.65;;;;;;;;;;5081966;28;20434;-77
2022/12/25 01:00:35;;;;;;;24.52;16.48;;;;;;;;;;5080953;28;20031;-76
2022/12/25 01:03:21;;;;;;;27.45;16.15;;;;;;;;;;5096244;28;20044;-76
2022/12/25 01:06:07;;;;;;;26.95;16.23;;;;;;;;;;5096947;28;20035;-77
2022/12/25 01:11:59;;;;;;;27.88;17.23;;;;;;;;;;5094534;28;20362;-77
2022/12/25 01:14:44;;;;;;;26.67;17.05;;;;;;;;;;5081811;28;20058;-76
2022/12/25 01:17:30;;;;;;;29.63;17.75;;;;;;;;;;5094514;28;20016;-77
2022/12/25 01:20:16;;;;;;;27.02;17.67;;;;;;;;;;5080527;28;20012;-76
2022/12/25 01:23:01;;;;;;;27.10;16.92;;;;;;;;;;5094823;28;20016;-77
2022/12/25 01:25:47;;;;;;;25.90;17.00;;;;;;;;;;5095405;28;20031;-76
2022/12/25 01:28:33;;;;;;;27.00;17.15;;;;;;;;;;5081470;28;20024;-77
2022/12/25 01:31:20;;;;;;;31.90;19.02;;;;;;;;;;5097605;28;20016;-77
2022/12/25 01:34:05;;;;;;;27.08;16.83;;;;;;;;;;5097906;28;20051;-77
2022/12/25 01:36:51;;;;;;;28.33;16.92;;;;;;;;;;5096000;28;20024;-77
2022/12/25 01:39:37;;;;;;;28.13;17.33;;;;;;;;;;5096809;28;20027;-77
2022/12/25 01:42:23;;;;;;;26.30;17.88;;;;;;;;;;5104599;28;20028;-76
2022/12/25 01:45:26;;;;;;;24.70;16.70;;;;;;;;;;5107495;28;20024;-77
2022/12/25 01:48:17;;;;;;;28.20;17.10;;;;;;;;;;5097627;28;20031;-76
2022/12/25 01:51:13;;;;;;;25.52;16.42;;;;;;;;;;5101088;28;20024;-76
2022/12/25 01:54:01;;;;;;;26.25;16.25;;;;;;;;;;5116395;28;20012;-75
2022/12/25 01:56:48;;;;;;;28.77;16.95;;;;;;;;;;5115502;28;20093;-76
2022/12/25 01:59:33;;;;;;;26.80;16.30;;;;;;;;;;5113870;28;20111;-80
2022/12/25 02:02:22;;;;;;;28.25;17.60;;;;;;;;;;5093055;28;20060;-78
2022/12/25 02:05:10;;;;;;;26.63;16.90;;;;;;;;;;5092639;28;20040;-75
2022/12/25 02:08:09;;;;;;;26.02;17.08;;;;;;;;;;5113835;28;20016;-75
2022/12/25 02:10:55;;;;;;;27.88;17.33;;;;;;;;;;5114650;28;20050;-76
2022/12/25 02:13:41;;;;;;;30.75;17.60;;;;;;;;;;5113000;28;20111;-77
2022/12/25 02:16:28;;;;;;;27.63;17.00;;;;;;;;;;5114308;28;20085;-76
2022/12/25 02:19:26;;;;;;;27.02;17.40;;;;;;;;;;5114207;28;20028;-77
2022/12/25 02:22:25;;;;;;;29.02;17.73;;;;;;;;;;5097836;28;20476;-76
2022/12/25 02:25:14;;;;;;;29.25;17.63;;;;;;;;;;5097947;28;20044;-76
2022/12/25 02:28:03;;;;;;;29.77;17.60;;;;;;;;;;5097969;28;20015;-77
2022/12/25 02:30:53;;;;;;;31.92;19.33;;;;;;;;;;5098965;28;20034;-75
2022/12/25 02:36:56;;;;;;;27.30;17.83;;;;;;;;;;5112746;28;20043;-76
2022/12/25 02:39:57;;;;;;;29.35;18.10;;;;;;;;;;5110780;28;20020;-77
2022/12/25 03:07:40;;;;;;;38.10;20.70;;;;;;;;;;5094650;28;20023;-76
2022/12/25 03:13:32;;;;;;;34.80;21.25;;;;;;;;;;5094132;28;20012;-78
2022/12/25 03:28:41;;;;;;;36.58;21.75;;;;;;;;;;5094489;28;20034;-76
2022/12/25 03:31:45;;;;;;;37.88;22.77;;;;;;;;;;5078256;28;20016;-75
2022/12/25 04:36:58;;;;;;;46.55;25.95;;;;;;;;;;5078223;28;20056;-76
2022/12/25 04:39:43;;;;;;;45.85;25.15;;;;;;;;;;5076744;28;20097;-77
2022/12/25 04:42:31;;;;;;;43.35;24.55;;;;;;;;;;5062421;28;20016;-76
2022/12/25 04:45:17;;;;;;;38.67;24.25;;;;;;;;;;5075796;28;20036;-77
2022/12/25 04:48:03;;;;;;;42.63;24.48;;;;;;;;;;5076136;28;20025;-77
2022/12/25 04:50:48;;;;;;;42.67;24.23;;;;;;;;;;5062399;28;20027;-77
2022/12/25 04:53:34;;;;;;;43.03;23.75;;;;;;;;;;5077071;28;20485;-77
2022/12/25 04:56:20;;;;;;;40.60;23.75;;;;;;;;;;5062086;28;20024;-77
2022/12/25 04:59:06;;;;;;;42.28;23.90;;;;;;;;;;5076032;28;20017;-77
2022/12/25 05:01:52;;;;;;;37.65;22.45;;;;;;;;;;5088579;28;20044;-76
2022/12/25 05:04:37;;;;;;;41.55;23.08;;;;;;;;;;5096360;28;20024;-78
2022/12/25 05:07:23;;;;;;;38.20;23.05;;;;;;;;;;5095802;28;20048;-76
2022/12/25 05:10:08;;;;;;;35.83;20.90;;;;;;;;;;5080704;28;20017;-76
2022/12/25 05:12:54;;;;;;;42.90;23.92;;;;;;;;;;5076325;28;20073;-76
2022/12/25 05:15:40;;;;;;;39.35;23.52;;;;;;;;;;5096220;28;20017;-77
2022/12/25 05:18:26;;;;;;;42.78;22.63;;;;;;;;;;5095641;28;20051;-76
2022/12/25 05:21:11;;;;;;;39.20;23.25;;;;;;;;;;5081406;28;20031;-76
2022/12/25 05:23:57;;;;;;;38.97;22.20;;;;;;;;;;5095430;28;20404;-77
2022/12/25 05:26:43;;;;;;;39.42;22.95;;;;;;;;;;5081119;28;20493;-77
2022/12/25 05:29:28;;;;;;;40.63;22.27;;;;;;;;;;5095738;28;20024;-77
2022/12/25 05:32:14;;;;;;;46.67;23.60;;;;;;;;;;5087146;28;20027;-77
2022/12/25 05:34:59;;;;;;;39.22;23.98;;;;;;;;;;5095782;28;20306;-76
2022/12/25 05:37:45;;;;;;;38.40;23.38;;;;;;;;;;5095195;28;20514;-77
2022/12/25 05:40:31;;;;;;;37.10;22.60;;;;;;;;;;5095239;28;20036;-75
2022/12/25 05:43:18;;;;;;;38.38;22.17;;;;;;;;;;5081470;28;20050;-75
2022/12/25 05:46:05;;;;;;;38.78;22.95;;;;;;;;;;5080310;28;20484;-77
2022/12/25 05:48:50;;;;;;;38.17;21.92;;;;;;;;;;5081136;28;20024;-77
2022/12/25 05:51:36;;;;;;;37.15;22.30;;;;;;;;;;5094604;28;20027;-76
2022/12/25 05:54:21;;;;;;;37.08;22.30;;;;;;;;;;5094848;28;20438;-76
2022/12/25 05:57:07;;;;;;;39.70;22.17;;;;;;;;;;5080336;28;20035;-78
2022/12/25 05:59:53;;;;;;;40.67;22.20;;;;;;;;;;5094773;28;20047;-76
2022/12/25 06:02:38;;;;;;;39.38;21.92;;;;;;;;;;5094794;28;20036;-76
2022/12/25 06:05:27;;;;;;;40.00;22.15;;;;;;;;;;5095675;28;20035;-77
2022/12/25 06:08:12;;;;;;;40.15;21.63;;;;;;;;;;5079215;28;20107;-77
2022/12/25 06:10:58;;;;;;;40.63;21.58;;;;;;;;;;5079035;28;20054;-77
2022/12/25 06:13:43;;;;;;;35.25;21.02;;;;;;;;;;5079663;28;20057;-78
2022/12/25 06:16:29;;;;;;;35.58;21.02;;;;;;;;;;5081263;28;20019;-78
2022/12/25 06:19:14;;;;;;;35.53;21.15;;;;;;;;;;5081355;28;20099;-76
2022/12/25 06:22:00;;;;;;;35.88;20.15;;;;;;;;;;5094767;28;20020;-77
2022/12/25 06:24:46;;;;;;;34.60;21.05;;;;;;;;;;5079757;28;20024;-77
2022/12/25 06:27:31;;;;;;;33.05;19.73;;;;;;;;;;5079977;28;20112;-75
2022/12/25 06:30:17;;;;;;;35.25;19.77;;;;;;;;;;5093876;28;20027;-76
2022/12/25 06:33:02;;;;;;;36.00;20.73;;;;;;;;;;5080002;28;20023;-77
2022/12/25 06:35:48;;;;;;;33.58;19.75;;;;;;;;;;5092308;28;20028;-77
2022/12/25 06:38:34;;;;;;;32.13;19.35;;;;;;;;;;5095045;28;20028;-77
2022/12/25 06:41:22;;;;;;;33.22;19.17;;;;;;;;;;5094170;28;20053;-77
2022/12/25 06:44:08;;;;;;;37.15;20.42;;;;;;;;;;5094327;28;20038;-76
2022/12/25 06:46:53;;;;;;;34.67;19.40;;;;;;;;;;5093656;28;20020;-76
2022/12/25 06:49:39;;;;;;;32.30;19.20;;;;;;;;;;5093896;28;20093;-77
2022/12/25 06:52:25;;;;;;;30.90;18.35;;;;;;;;;;5093864;28;20052;-77
2022/12/25 06:55:10;;;;;;;28.35;18.27;;;;;;;;;;5095040;28;20036;-77
2022/12/25 06:57:56;;;;;;;31.15;19.20;;;;;;;;;;5077994;28;20099;-77
2022/12/25 07:00:41;;;;;;;31.23;19.20;;;;;;;;;;5078982;28;20044;-77
2022/12/25 07:03:28;;;;;;;32.20;18.83;;;;;;;;;;5078954;28;20146;-77
2022/12/25 07:06:14;;;;;;;31.55;19.58;;;;;;;;;;5079095;28;20365;-76
2022/12/25 07:08:59;;;;;;;29.90;18.17;;;;;;;;;;5079704;28;20016;-76
2022/12/25 07:11:45;;;;;;;29.67;17.65;;;;;;;;;;5093593;28;20016;-77
2022/12/25 07:14:30;;;;;;;28.58;17.20;;;;;;;;;;5094236;28;20023;-76
2022/12/25 07:17:18;;;;;;;31.27;17.42;;;;;;;;;;5078835;28;20070;-77
2022/12/25 07:20:04;;;;;;;30.80;18.63;;;;;;;;;;5079877;28;20356;-76
2022/12/25 07:22:49;;;;;;;30.83;17.65;;;;;;;;;;5093374;28;20052;-76
2022/12/25 07:25:35;;;;;;;28.73;17.10;;;;;;;;;;5078790;28;20024;-77
2022/12/25 07:28:20;;;;;;;32.65;17.13;;;;;;;;;;5093041;28;20015;-77
2022/12/25 07:31:08;;;;;;;31.88;17.45;;;;;;;;;;5093197;28;20050;-77
2022/12/25 07:33:57;;;;;;;28.00;15.85;;;;;;;;;;5080749;28;20099;-77
2022/12/25 07:36:45;;;;;;;27.52;17.13;;;;;;;;;;5078294;28;20017;-76
2022/12/25 07:39:34;;;;;;;25.63;15.90;;;;;;;;;;5093911;28;20112;-78
2022/12/25 07:42:19;;;;;;;25.35;15.90;;;;;;;;;;5093812;28;20460;-77
2022/12/25 07:45:05;;;;;;;25.95;16.05;;;;;;;;;;5078478;28;20046;-78
2022/12/25 07:47:51;;;;;;;25.27;15.52;;;;;;;;;;5093597;28;20008;-78
2022/12/25 07:50:39;;;;;;;22.48;15.15;;;;;;;;;;5097770;28;20035;-78
2022/12/25 07:53:28;;;;;;;25.38;14.98;;;;;;;;;;5097853;28;20131;-75
2022/12/25 07:56:15;;;;;;;26.77;17.55;;;;;;;;;;5097474;28;20028;-77
2022/12/25 07:59:00;;;;;;;26.45;16.10;;;;;;;;;;5083827;28;20514;-77
2022/12/25 08:01:47;;;;;;;29.30;18.75;;;;;;;;;;5098761;28;20054;-76
2022/12/25 08:04:33;;;;;;;26.38;16.65;;;;;;;;;;5097640;28;20028;-77
2022/12/25 08:07:19;;;;;;;27.15;16.15;;;;;;;;;;5082597;28;20111;-76
2022/12/25 08:10:05;;;;;;;24.25;15.27;;;;;;;;;;5082462;28;20022;-76
2022/12/25 08:12:50;;;;;;;25.52;15.05;;;;;;;;;;5097912;28;20020;-77
2022/12/25 08:15:36;;;;;;;25.52;15.13;;;;;;;;;;5083814;28;20103;-77
2022/12/25 08:18:22;;;;;;;25.23;15.25;;;;;;;;;;5082667;28;20020;-77
2022/12/25 08:21:09;;;;;;;20.95;14.98;;;;;;;;;;5097223;28;20034;-79
2022/12/25 08:23:54;;;;;;;26.15;15.23;;;;;;;;;;5097166;28;20027;-78
2022/12/25 08:26:40;;;;;;;26.05;15.98;;;;;;;;;;5097671;28;20161;-78
2022/12/25 08:29:27;;;;;;;28.40;15.85;;;;;;;;;;5097062;28;20042;-77
2022/12/25 08:32:13;;;;;;;22.35;14.60;;;;;;;;;;5097574;28;20016;-78
2022/12/25 08:34:58;;;;;;;24.77;15.88;;;;;;;;;;5097270;28;20503;-78
2022/12/25 08:37:44;;;;;;;25.10;15.15;;;;;;;;;;5082205;28;20028;-79
2022/12/25 08:40:31;;;;;;;23.08;14.60;;;;;;;;;;5096873;28;20020;-78
2022/12/25 08:43:16;;;;;;;23.95;15.35;;;;;;;;;;5096649;28;20496;-78
2022/12/25 08:46:02;;;;;;;22.13;14.20;;;;;;;;;;5081497;28;20038;-80
2022/12/25 08:48:48;;;;;;;24.92;15.75;;;;;;;;;;5081862;28;20012;-78
2022/12/25 08:51:36;;;;;;;25.08;15.38;;;;;;;;;;5097755;28;20027;-77
2022/12/25 08:54:21;;;;;;;25.67;15.43;;;;;;;;;;5082870;28;20514;-78
2022/12/25 08:57:07;;;;;;;24.05;14.90;;;;;;;;;;5082270;28;20473;-78
2022/12/25 08:59:52;;;;;;;24.52;15.98;;;;;;;;;;5081587;28;20350;-78
2022/12/25 09:02:38;;;;;;;25.65;15.77;;;;;;;;;;5095666;28;20139;-79
2022/12/25 09:05:24;;;;;;;21.55;14.52;;;;;;;;;;5081179;28;20058;-76
2022/12/25 09:08:09;;;;;;;27.05;15.65;;;;;;;;;;5081913;28;20038;-79
2022/12/25 09:10:55;;;;;;;22.65;14.02;;;;;;;;;;5096208;28;20039;-77
2022/12/25 09:13:41;;;;;;;25.65;15.77;;;;;;;;;;5095846;28;20069;-78
2022/12/25 09:16:27;;;;;;;22.85;15.30;;;;;;;;;;5096150;28;20306;-77
2022/12/25 09:19:12;;;;;;;22.95;15.30;;;;;;;;;;5096677;28;20563;-75
2022/12/25 09:21:58;;;;;;;21.67;14.77;;;;;;;;;;5080765;28;20028;-78
2022/12/25 09:24:43;;;;;;;25.02;16.42;;;;;;;;;;5081391;28;20024;-78
2022/12/25 09:27:29;;;;;;;26.00;15.93;;;;;;;;;;5096202;28;20342;-78
2022/12/25 09:30:15;;;;;;;25.88;16.27;;;;;;;;;;5102730;28;20066;-76
2022/12/25 09:33:00;;;;;;;26.17;16.45;;;;;;;;;;5108773;28;20020;-77
2022/12/25 09:35:53;;;;;;;26.23;15.52;;;;;;;;;;5118014;28;20020;-78
2022/12/25 09:38:38;;;;;;;26.63;15.65;;;;;;;;;;5102996;28;20008;-79
2022/12/25 09:41:30;;;;;;;25.13;15.70;;;;;;;;;;5095972;28;20438;-77
2022/12/25 09:44:18;;;;;;;25.55;15.93;;;;;;;;;;5095612;28;20050;-78
2022/12/25 09:47:05;;;;;;;25.45;15.23;;;;;;;;;;5095581;28;20197;-76
2022/12/25 09:49:53;;;;;;;26.73;16.42;;;;;;;;;;5081832;28;20031;-78
2022/12/25 09:52:57;;;;;;;26.10;16.33;;;;;;;;;;5081404;28;20016;-78
2022/12/25 09:55:47;;;;;;;24.45;14.90;;;;;;;;;;5095254;28;20082;-78
2022/12/25 09:58:33;;;;;;;25.42;16.08;;;;;;;;;;5095620;28;20106;-78
2022/12/25 10:01:27;;;;;;;28.05;15.57;;;;;;;;;;5094651;28;20374;-78
2022/12/25 10:04:16;;;;;;;25.55;17.95;;;;;;;;;;5081702;28;20027;-74
2022/12/25 10:07:11;;;;;;;25.30;16.33;;;;;;;;;;5086701;28;20055;-77
2022/12/25 10:10:20;;;;;;;23.45;15.77;;;;;;;;;;5092445;28;20080;-78
2022/12/25 10:13:05;;;;;;;29.48;16.80;;;;;;;;;;5053184;28;20078;-77
2022/12/25 10:16:03;;;;;;;26.70;16.67;;;;;;;;;;5094762;28;20024;-77
2022/12/25 10:19:01;;;;;;;25.20;15.98;;;;;;;;;;5080166;28;20012;-78
2022/12/25 10:21:48;;;;;;;24.27;15.80;;;;;;;;;;5079421;28;20024;-77
2022/12/25 10:24:36;;;;;;;23.58;15.27;;;;;;;;;;5094718;28;20039;-76
2022/12/25 10:27:36;;;;;;;23.30;15.02;;;;;;;;;;5095194;28;20362;-78
2022/12/25 10:30:23;;;;;;;25.60;16.48;;;;;;;;;;5094420;28;20095;-78
2022/12/25 10:33:11;;;;;;;22.73;15.25;;;;;;;;;;5094945;28;20099;-78
2022/12/25 10:35:57;;;;;;;27.20;16.27;;;;;;;;;;5094579;28;20031;-78
2022/12/25 10:38:43;;;;;;;27.98;16.88;;;;;;;;;;5079366;28;20362;-78
2022/12/25 10:41:45;;;;;;;22.20;15.20;;;;;;;;;;5094164;28;20107;-78
2022/12/25 10:44:33;;;;;;;26.20;16.52;;;;;;;;;;5079147;28;20463;-78
2022/12/25 10:47:22;;;;;;;26.50;16.30;;;;;;;;;;5094675;28;20107;-77
2022/12/25 10:50:17;;;;;;;26.52;16.05;;;;;;;;;;5094149;28;20100;-78
2022/12/25 10:53:05;;;;;;;24.25;15.88;;;;;;;;;;5093725;28;20358;-78
2022/12/25 10:55:56;;;;;;;27.85;16.30;;;;;;;;;;5094069;28;20051;-78
2022/12/25 10:58:42;;;;;;;27.52;16.00;;;;;;;;;;5094006;28;20031;-78
2022/12/25 11:01:28;;;;;;;24.92;16.27;;;;;;;;;;5093715;28;20052;-78
2022/12/25 11:04:18;;;;;;;24.85;16.33;;;;;;;;;;5094979;28;20023;-77
2022/12/25 11:07:06;;;;;;;23.77;14.98;;;;;;;;;;5093837;28;20036;-78
2022/12/25 11:09:52;;;;;;;24.25;15.95;;;;;;;;;;5079543;28;20020;-77
2022/12/25 11:12:42;;;;;;;26.58;16.70;;;;;;;;;;5093724;28;20051;-77
2022/12/25 11:15:35;;;;;;;22.95;15.65;;;;;;;;;;5094212;28;20091;-76
2022/12/25 11:18:22;;;;;;;23.80;15.73;;;;;;;;;;5095134;28;20032;-78
2022/12/25 11:21:16;;;;;;;21.33;14.60;;;;;;;;;;5093811;28;20052;-78
2022/12/25 11:24:03;;;;;;;24.83;16.10;;;;;;;;;;5079021;28;20074;-76
2022/12/25 11:26:50;;;;;;;25.00;15.80;;;;;;;;;;5094631;28;20081;-78
2022/12/25 11:29:42;;;;;;;20.90;14.32;;;;;;;;;;5093338;28;20020;-78
2022/12/25 11:32:29;;;;;;;24.02;15.55;;;;;;;;;;5094188;28;20426;-78
2022/12/25 11:35:16;;;;;;;24.35;15.18;;;;;;;;;;5079725;28;20451;-78
2022/12/25 11:38:02;;;;;;;21.98;15.02;;;;;;;;;;5093304;28;20493;-77
2022/12/25 11:40:49;;;;;;;25.08;16.33;;;;;;;;;;5094238;28;20442;-78
2022/12/25 11:43:37;;;;;;;25.42;16.38;;;;;;;;;;5079624;28;20091;-78
2022/12/25 11:46:25;;;;;;;22.50;15.63;;;;;;;;;;5093922;28;20035;-78
2022/12/25 11:49:16;;;;;;;34.17;21.75;;;;;;;;;;5093795;28;20350;-78
2022/12/25 11:52:05;;;;;;;28.38;17.65;;;;;;;;;;5093368;28;20078;-78
2022/12/25 11:54:54;;;;;;;28.63;19.27;;;;;;;;;;5093416;28;20514;-78
2022/12/25 11:57:40;;;;;;;23.92;16.27;;;;;;;;;;5079783;28;20043;-78
2022/12/25 12:00:27;;;;;;;24.35;15.95;;;;;;;;;;5093817;28;20327;-79
2022/12/25 12:03:18;;;;;;;25.52;16.70;;;;;;;;;;5079177;28;20378;-77
2022/12/25 12:06:07;;;;;;;26.63;16.85;;;;;;;;;;5080140;28;20084;-78
2022/12/25 12:08:57;;;;;;;23.73;16.00;;;;;;;;;;5093164;28;20047;-78
2022/12/25 12:11:50;;;;;;;25.50;16.40;;;;;;;;;;5078897;28;20454;-76
2022/12/25 12:14:46;;;;;;;24.58;16.52;;;;;;;;;;5093234;28;20024;-77
2022/12/25 12:17:32;;;;;;;25.23;16.88;;;;;;;;;;5093060;28;20035;-78
2022/12/25 12:20:26;;;;;;;26.08;16.95;;;;;;;;;;5093601;28;20489;-76
2022/12/25 12:23:15;;;;;;;25.90;17.35;;;;;;;;;;5092894;28;20040;-78
2022/12/25 12:26:02;;;;;;;24.85;16.60;;;;;;;;;;5092975;28;20107;-78
2022/12/25 12:28:48;;;;;;;22.10;15.55;;;;;;;;;;5094062;28;20366;-78
2022/12/25 12:31:41;;;;;;;23.65;16.02;;;;;;;;;;5078658;28;20028;-78
2022/12/25 12:34:41;;;;;;;23.38;16.38;;;;;;;;;;5095639;28;20047;-78
2022/12/25 12:37:29;;;;;;;23.65;16.73;;;;;;;;;;5084679;28;20023;-78
2022/12/25 12:40:24;;;;;;;27.80;17.42;;;;;;;;;;5096595;28;20433;-78
2022/12/25 12:43:28;;;;;;;26.00;16.77;;;;;;;;;;5084058;28;20346;-78
2022/12/25 12:46:14;;;;;;;25.48;16.60;;;;;;;;;;5096918;28;20032;-78
2022/12/25 12:49:09;;;;;;;26.23;16.02;;;;;;;;;;5096044;28;20026;-76
2022/12/25 12:52:03;;;;;;;20.30;14.90;;;;;;;;;;5081139;28;20331;-78
2022/12/25 12:55:00;;;;;;;26.27;16.17;;;;;;;;;;5097089;28;20016;-77
2022/12/25 12:57:56;;;;;;;23.17;15.10;;;;;;;;;;5096575;28;20350;-78
2022/12/25 13:00:52;;;;;;;25.30;15.07;;;;;;;;;;5096530;28;20047;-78
2022/12/25 13:03:38;;;;;;;22.75;15.02;;;;;;;;;;5082362;28;20144;-78
2022/12/25 13:06:37;;;;;;;26.73;15.88;;;;;;;;;;5096233;28;20119;-77
2022/12/25 13:09:46;;;;;;;23.95;14.82;;;;;;;;;;5081070;28;20446;-79
2022/12/25 13:12:32;;;;;;;20.90;14.32;;;;;;;;;;5096135;28;20038;-78
2022/12/25 13:15:19;;;;;;;20.52;13.57;;;;;;;;;;5081509;28;20408;-77
2022/12/25 13:18:06;;;;;;;22.70;13.30;;;;;;;;;;5081743;28;20518;-78
2022/12/25 13:20:58;;;;;;;19.83;13.63;;;;;;;;;;5081630;28;20032;-78
2022/12/25 13:23:44;;;;;;;21.83;13.98;;;;;;;;;;5082487;28;20020;-78
2022/12/25 13:26:29;;;;;;;22.50;13.48;;;;;;;;;;5095807;28;20093;-78
2022/12/25 13:29:31;;;;;;;19.95;13.43;;;;;;;;;;5082667;28;20438;-77
2022/12/25 13:32:28;;;;;;;24.95;14.98;;;;;;;;;;5095878;28;20020;-78
2022/12/25 13:35:15;;;;;;;21.25;14.27;;;;;;;;;;5095325;28;20027;-78
2022/12/25 13:38:01;;;;;;;21.35;14.15;;;;;;;;;;5096029;28;20020;-78
2022/12/25 13:42:04;;;;;;;21.05;14.70;;;;;;;;;;5095660;28;20035;-78
2022/12/25 13:43:56;;;;;;;21.63;13.32;;;;;;;;;;5096053;28;20020;-77
2022/12/25 13:46:43;;;;;;;22.67;13.00;;;;;;;;;;5081399;28;20133;-78
2022/12/25 13:49:29;;;;;;;24.70;13.98;;;;;;;;;;5080841;28;20080;-77
2022/12/25 13:52:16;;;;;;;20.20;13.55;;;;;;;;;;5082077;28;20027;-78
2022/12/25 13:55:09;;;;;;;23.77;14.13;;;;;;;;;;5095791;28;20024;-77
2022/12/25 13:57:57;;;;;;;24.88;14.52;;;;;;;;;;5083178;28;20030;-77
2022/12/25 14:00:51;;;;;;;22.25;14.27;;;;;;;;;;5095669;28;20063;-78
2022/12/25 14:03:41;;;;;;;21.05;13.73;;;;;;;;;;5095597;28;20046;-77
2022/12/25 14:06:28;;;;;;;20.52;13.73;;;;;;;;;;5081826;28;20499;-78
2022/12/25 14:09:14;;;;;;;24.05;13.93;;;;;;;;;;5095189;28;20016;-78
2022/12/25 14:12:00;;;;;;;23.15;14.55;;;;;;;;;;5083424;28;20566;-77
2022/12/25 14:14:46;;;;;;;25.92;14.80;;;;;;;;;;5107947;28;20000;-80
2022/12/25 14:17:32;;;;;;;21.85;14.60;;;;;;;;;;5081968;28;20450;-77
2022/12/25 14:20:22;;;;;;;24.08;15.60;;;;;;;;;;5081903;28;20022;-77
2022/12/25 14:23:13;;;;;;;23.55;14.68;;;;;;;;;;5080978;28;20024;-78
2022/12/25 14:25:59;;;;;;;22.85;14.68;;;;;;;;;;5080928;28;20111;-79
2022/12/25 14:28:48;;;;;;;21.58;13.98;;;;;;;;;;5080132;28;20499;-78
2022/12/25 14:31:37;;;;;;;21.38;13.75;;;;;;;;;;5081479;28;20073;-76
2022/12/25 14:34:25;;;;;;;24.63;15.00;;;;;;;;;;5095314;28;20345;-77
2022/12/25 14:37:16;;;;;;;23.17;14.00;;;;;;;;;;5094298;28;20031;-77
2022/12/25 14:40:05;;;;;;;20.45;13.63;;;;;;;;;;5080872;28;20067;-77
2022/12/25 14:43:02;;;;;;;26.80;15.25;;;;;;;;;;5095164;28;20020;-78
2022/12/25 14:45:53;;;;;;;23.38;14.80;;;;;;;;;;5079373;28;20020;-78
2022/12/25 14:48:39;;;;;;;25.73;15.40;;;;;;;;;;5094198;28;20020;-78
2022/12/25 14:51:25;;;;;;;23.48;14.93;;;;;;;;;;5094819;28;20354;-77
2022/12/25 14:54:17;;;;;;;25.58;15.82;;;;;;;;;;5089079;28;20054;-79
2022/12/25 14:57:02;;;;;;;26.20;16.52;;;;;;;;;;5085220;28;20023;-78
2022/12/25 14:59:53;;;;;;;28.90;16.63;;;;;;;;;;5094334;28;20328;-78
2022/12/25 15:02:42;;;;;;;27.05;16.13;;;;;;;;;;5073209;28;20413;-77
2022/12/25 15:05:29;;;;;;;32.35;19.13;;;;;;;;;;5079186;28;20183;-78
2022/12/25 15:08:15;;;;;;;29.77;18.73;;;;;;;;;;5079888;28;20365;-77
2022/12/25 15:11:01;;;;;;;29.15;18.92;;;;;;;;;;5078637;28;20096;-78
2022/12/25 15:13:46;;;;;;;30.05;18.17;;;;;;;;;;5079408;28;20453;-78
2022/12/25 15:16:43;;;;;;;27.73;18.50;;;;;;;;;;5093737;28;20106;-78
2022/12/25 15:19:31;;;;;;;27.48;18.73;;;;;;;;;;5093494;28;20040;-77
2022/12/25 15:22:16;;;;;;;29.98;18.88;;;;;;;;;;5079280;28;20362;-78
2022/12/25 15:25:02;;;;;;;31.20;19.58;;;;;;;;;;5079645;28;20372;-77
2022/12/25 15:27:48;;;;;;;33.03;19.73;;;;;;;;;;5092025;28;20053;-77
2022/12/25 15:30:34;;;;;;;31.80;20.60;;;;;;;;;;5092881;28;20031;-77
2022/12/25 15:33:19;;;;;;;32.35;20.85;;;;;;;;;;5079090;28;20087;-77
2022/12/25 15:36:06;;;;;;;31.98;19.60;;;;;;;;;;5093055;28;20347;-77
2022/12/25 15:38:52;;;;;;;31.55;19.70;;;;;;;;;;5092819;28;20103;-78
2022/12/25 15:44:44;;;;;;;36.80;21.90;;;;;;;;;;5093162;28;20357;-78
2022/12/25 15:47:31;;;;;;;35.95;22.27;;;;;;;;;;5093352;28;20089;-76
2022/12/25 15:50:17;;;;;;;37.40;23.30;;;;;;;;;;5091859;28;20020;-76
2022/12/25 15:53:03;;;;;;;34.92;22.02;;;;;;;;;;5093122;28;20028;-77
2022/12/25 15:55:48;;;;;;;34.63;21.40;;;;;;;;;;5092048;28;20115;-77
2022/12/25 15:58:34;;;;;;;37.65;23.20;;;;;;;;;;5092037;28;20032;-76
2022/12/25 16:01:20;;;;;;;34.88;22.50;;;;;;;;;;5078039;28;20052;-77
2022/12/25 16:04:05;;;;;;;37.63;23.25;;;;;;;;;;5092599;28;20020;-78
2022/12/25 16:06:51;;;;;;;35.53;23.75;;;;;;;;;;5093056;28;20167;-77
2022/12/25 16:09:37;;;;;;;39.17;25.30;;;;;;;;;;5081124;28;20038;-77
2022/12/25 16:12:23;;;;;;;44.63;27.50;;;;;;;;;;5082472;28;20425;-77
2022/12/25 16:15:09;;;;;;;46.35;28.75;;;;;;;;;;5082203;28;20311;-77
2022/12/25 16:17:55;;;;;;;49.55;30.13;;;;;;;;;;5083341;28;20096;-77
2022/12/25 16:20:41;;;;;;;43.33;28.42;;;;;;;;;;5082898;28;20027;-77
2022/12/25 16:23:27;;;;;;;53.20;32.08;;;;;;;;;;5082835;28;20024;-76
2022/12/25 16:26:12;;;;;;;49.28;31.20;;;;;;;;;;5082601;28;20073;-76
2022/12/25 16:28:58;;;;;;;49.80;29.92;;;;;;;;;;5082514;28;20077;-77
2022/12/25 16:31:44;;;;;;;44.08;28.30;;;;;;;;;;5096292;28;20023;-77
2022/12/25 16:34:30;;;;;;;47.28;30.33;;;;;;;;;;5082692;28;20031;-76
2022/12/25 16:37:15;;;;;;;47.90;29.92;;;;;;;;;;5096762;28;20023;-79
2022/12/25 16:40:01;;;;;;;53.65;32.85;;;;;;;;;;5096705;28;20523;-79
2022/12/25 16:42:46;;;;;;;53.33;30.65;;;;;;;;;;5081545;28;20036;-76
2022/12/25 16:45:36;;;;;;;47.80;28.48;;;;;;;;;;5096185;28;20047;-78
2022/12/25 16:48:22;;;;;;;47.72;28.38;;;;;;;;;;5096242;28;20051;-78
2022/12/25 16:51:18;;;;;;;45.10;28.40;;;;;;;;;;5080920;28;20024;-77
2022/12/25 16:54:03;;;;;;;48.40;29.10;;;;;;;;;;5081970;28;20031;-78
2022/12/25 16:56:50;;;;;;;47.38;29.98;;;;;;;;;;5096831;28;20419;-77
2022/12/25 16:59:36;;;;;;;52.47;30.60;;;;;;;;;;5096229;28;20031;-77
2022/12/25 17:02:21;;;;;;;53.83;30.55;;;;;;;;;;5095085;28;20423;-77
2022/12/25 17:05:07;;;;;;;86.68;43.92;;;;;;;;;;5095821;28;20108;-78
2022/12/25 17:07:53;;;;;;;69.38;36.70;;;;;;;;;;5096196;28;20024;-76
2022/12/25 17:10:38;;;;;;;75.18;39.85;;;;;;;;;;5095539;28;20416;-77
2022/12/25 17:13:24;;;;;;;56.58;32.42;;;;;;;;;;5082783;28;20028;-78
2022/12/25 17:16:11;;;;;;;57.05;34.90;;;;;;;;;;5080828;28;20111;-77
2022/12/25 17:19:00;;;;;;;49.15;30.92;;;;;;;;;;5095820;28;20024;-77
2022/12/25 17:21:46;;;;;;;53.13;33.03;;;;;;;;;;5081343;28;20024;-77
2022/12/25 17:24:33;;;;;;;54.38;32.28;;;;;;;;;;5082951;28;20023;-76
2022/12/25 17:27:19;;;;;;;55.25;32.05;;;;;;;;;;5081481;28;20020;-76
2022/12/25 17:30:05;;;;;;;51.13;29.92;;;;;;;;;;5081310;28;20115;-77
2022/12/25 17:32:50;;;;;;;54.13;32.05;;;;;;;;;;5096823;28;20022;-77
2022/12/25 17:35:36;;;;;;;52.92;30.60;;;;;;;;;;5095800;28;20442;-75
2022/12/25 17:38:22;;;;;;;50.95;29.77;;;;;;;;;;5081096;28;20027;-78
2022/12/25 17:41:09;;;;;;;55.13;31.75;;;;;;;;;;5081358;28;20019;-77
2022/12/25 17:43:54;;;;;;;54.92;30.45;;;;;;;;;;5095308;28;20027;-77
2022/12/25 17:46:40;;;;;;;49.78;27.98;;;;;;;;;;5081264;28;20026;-77
2022/12/25 17:49:26;;;;;;;46.67;28.30;;;;;;;;;;5080715;28;20012;-79
2022/12/25 17:52:11;;;;;;;49.50;29.73;;;;;;;;;;5095825;28;20061;-78
2022/12/25 17:54:57;;;;;;;48.92;28.98;;;;;;;;;;5080201;28;20478;-78
2022/12/25 17:57:43;;;;;;;46.58;27.65;;;;;;;;;;5095939;28;20060;-78
2022/12/25 18:00:28;;;;;;;47.03;28.23;;;;;;;;;;5080731;28;20093;-77
2022/12/25 18:03:14;;;;;;;49.38;30.55;;;;;;;;;;5081006;28;20450;-79
2022/12/25 18:05:59;;;;;;;47.13;29.35;;;;;;;;;;5080382;28;20083;-77
2022/12/25 18:08:46;;;;;;;58.00;34.13;;;;;;;;;;5094396;28;20107;-77